Time;durP1;ratioP1;P1;durP2;ratioP2;P2;SDS_P1;SDS_P2;PMS_P1;PMS_P2;Temp;Humidity;BMP_temperature;BMP_pressure;BME280_temperature;BME280_humidity;BME280_pressure;Samples;Min_cycle;Max_cycle;Signal;HPM_P1;HPM_P2
2023/10/16 00:01:10;;;;;;;5.30;4.87;;;10.00;99.90;;;;;;4974711;28;20410;-73
2023/10/16 00:03:38;;;;;;;4.60;4.20;;;10.00;99.90;;;;;;4972766;28;20430;-73
2023/10/16 00:06:05;;;;;;;5.63;5.13;;;10.00;99.90;;;;;;4974022;28;20470;-74
2023/10/16 00:08:33;;;;;;;5.50;5.07;;;9.90;99.90;;;;;;4972274;28;20437;-73
2023/10/16 00:11:03;;;;;;;4.60;4.20;;;9.90;99.90;;;;;;4974869;28;20407;-73
2023/10/16 00:13:30;;;;;;;7.43;5.27;;;9.90;99.90;;;;;;4973063;28;20947;-73
2023/10/16 00:15:59;;;;;;;4.60;4.30;;;9.90;99.90;;;;;;4973820;28;20484;-73
2023/10/16 00:18:31;;;;;;;6.20;4.23;;;9.90;99.90;;;;;;4973876;28;20446;-64
2023/10/16 00:20:57;;;;;;;5.47;4.53;;;9.90;99.90;;;;;;4973208;28;20435;-72
2023/10/16 00:23:30;;;;;;;6.30;5.10;;;9.90;99.90;;;;;;4972912;28;20448;-61
2023/10/16 00:25:56;;;;;;;4.83;4.43;;;9.90;99.90;;;;;;4974410;28;20164;-72
2023/10/16 00:28:22;;;;;;;4.83;4.43;;;9.90;99.90;;;;;;4973196;28;20460;-72
2023/10/16 00:30:49;;;;;;;5.20;4.80;;;9.90;99.90;;;;;;4973516;28;20473;-72
2023/10/16 00:33:16;;;;;;;5.37;4.97;;;9.90;99.90;;;;;;4971826;28;20486;-72
2023/10/16 00:35:45;;;;;;;5.10;4.70;;;9.90;99.90;;;;;;4964633;28;20492;-72
2023/10/16 00:38:13;;;;;;;5.73;5.23;;;9.90;99.90;;;;;;4954289;28;20455;-72
2023/10/16 00:43:28;;;;;;;5.87;5.30;;;9.90;99.90;;;;;;4966370;28;20484;-72
2023/10/16 00:46:05;;;;;;;5.03;4.73;;;9.80;99.90;;;;;;4966400;28;20861;-72
2023/10/16 00:48:36;;;;;;;4.83;4.53;;;9.80;99.90;;;;;;4968156;28;20543;-72
2023/10/16 00:51:08;;;;;;;4.57;4.20;;;9.80;99.90;;;;;;4969093;28;20454;-73
2023/10/16 00:53:35;;;;;;;5.83;5.33;;;9.80;99.90;;;;;;4965898;28;20423;-71
2023/10/16 00:56:07;;;;;;;5.57;5.10;;;9.90;99.90;;;;;;4966725;28;20441;-72
2023/10/16 00:58:34;;;;;;;5.80;5.10;;;9.70;99.90;;;;;;4968419;28;20562;-73
2023/10/16 01:01:04;;;;;;;5.67;5.17;;;9.70;99.90;;;;;;4973823;28;20765;-72
2023/10/16 01:03:33;;;;;;;5.83;5.23;;;9.60;99.90;;;;;;4972493;28;20436;-72
2023/10/16 01:06:00;;;;;;;5.73;5.33;;;9.70;99.90;;;;;;4973486;28;20421;-72
2023/10/16 01:08:25;;;;;;;5.97;5.40;;;9.60;99.90;;;;;;4973236;28;20406;-66
2023/10/16 01:10:57;;;;;;;5.80;5.40;;;9.60;99.90;;;;;;4971344;28;20477;-72
2023/10/16 01:13:22;;;;;;;5.60;5.20;;;9.50;99.90;;;;;;4955430;28;20183;-72
2023/10/16 01:15:50;;;;;;;5.70;5.10;;;9.60;99.90;;;;;;4971444;28;20949;-72
2023/10/16 01:18:17;;;;;;;6.00;5.40;;;9.50;99.90;;;;;;4971765;28;20558;-72
2023/10/16 01:20:48;;;;;;;5.90;5.40;;;9.60;99.90;;;;;;4955051;28;20426;-72
2023/10/16 01:23:25;;;;;;;5.80;5.40;;;9.60;99.90;;;;;;4972750;28;20442;-73
2023/10/16 01:25:51;;;;;;;5.47;5.00;;;9.60;99.90;;;;;;4972093;28;20469;-72
2023/10/16 01:28:19;;;;;;;5.73;5.10;;;9.70;99.90;;;;;;4972656;28;20504;-72
2023/10/16 01:30:47;;;;;;;5.37;4.97;;;9.70;99.90;;;;;;4972268;28;20774;-72
2023/10/16 01:33:16;;;;;;;6.27;5.67;;;9.70;99.90;;;;;;4972559;28;20793;-72
2023/10/16 01:35:51;;;;;;;5.77;5.33;;;9.70;99.90;;;;;;4971498;28;20432;-72
2023/10/16 01:38:17;;;;;;;5.93;5.27;;;9.70;99.90;;;;;;4975080;28;20490;-72
2023/10/16 01:41:02;;;;;;;5.30;4.97;;;9.70;99.90;;;;;;4975281;28;20833;-72
2023/10/16 01:43:32;;;;;;;6.37;5.77;;;9.60;99.90;;;;;;4975644;28;20472;-64
2023/10/16 01:46:12;;;;;;;6.30;5.70;;;9.60;99.90;;;;;;4976448;28;20449;-71
2023/10/16 01:48:49;;;;;;;6.00;5.40;;;9.50;99.90;;;;;;4971221;28;20450;-72
2023/10/16 01:51:22;;;;;;;5.50;5.10;;;9.50;99.90;;;;;;4976408;28;20781;-72
2023/10/16 01:53:51;;;;;;;5.97;5.27;;;9.50;99.90;;;;;;4958024;28;21076;-72
2023/10/16 01:56:18;;;;;;;5.67;5.03;;;9.50;99.90;;;;;;4976047;28;20418;-72
2023/10/16 01:58:49;;;;;;;5.70;5.20;;;9.50;99.90;;;;;;4976015;28;20496;-72
2023/10/16 02:01:20;;;;;;;9.13;5.40;;;9.40;99.90;;;;;;4958729;28;20429;-72
2023/10/16 02:03:49;;;;;;;6.20;5.70;;;9.40;99.90;;;;;;4975224;28;20480;-72
2023/10/16 02:06:16;;;;;;;6.30;5.70;;;9.40;99.90;;;;;;4975702;28;20469;-72
2023/10/16 02:08:44;;;;;;;6.40;5.80;;;9.40;99.90;;;;;;4975826;28;20441;-72
2023/10/16 02:11:11;;;;;;;5.97;5.47;;;9.50;99.90;;;;;;4975934;28;20426;-72
2023/10/16 02:13:38;;;;;;;5.73;5.30;;;9.40;99.90;;;;;;4974413;28;20519;-72
2023/10/16 02:16:10;;;;;;;5.90;5.30;;;9.40;99.90;;;;;;4976027;28;20429;-64
2023/10/16 02:18:37;;;;;;;7.40;6.80;;;9.40;99.90;;;;;;4958470;28;20421;-72
2023/10/16 02:21:12;;;;;;;7.20;6.13;;;9.40;99.90;;;;;;4975689;28;20432;-72
2023/10/16 02:23:39;;;;;;;6.57;5.97;;;9.40;99.90;;;;;;4974582;28;20459;-70
2023/10/16 02:26:08;;;;;;;5.97;5.33;;;9.40;99.90;;;;;;4957922;28;20453;-73
2023/10/16 02:28:34;;;;;;;6.53;6.03;;;9.40;99.90;;;;;;4975604;28;20492;-69
2023/10/16 02:31:10;;;;;;;5.90;5.40;;;9.40;99.90;;;;;;4976241;28;20419;-73
2023/10/16 02:33:38;;;;;;;6.80;6.10;;;9.30;99.90;;;;;;4974831;28;20424;-73
2023/10/16 02:36:04;;;;;;;5.70;5.30;;;9.30;99.90;;;;;;4975839;28;20421;-73
2023/10/16 02:38:29;;;;;;;6.20;5.70;;;9.20;99.90;;;;;;4957188;28;20483;-66
2023/10/16 02:41:03;;;;;;;6.00;5.50;;;9.20;99.90;;;;;;4973474;28;20785;-70
2023/10/16 02:43:30;;;;;;;6.80;6.03;;;9.20;99.90;;;;;;4974823;28;20205;-72
2023/10/16 02:45:56;;;;;;;6.80;5.40;;;9.20;99.90;;;;;;4975345;28;20483;-72
2023/10/16 02:48:23;;;;;;;7.83;6.07;;;9.10;99.90;;;;;;4973736;28;21748;-72
2023/10/16 02:50:53;;;;;;;5.73;5.30;;;9.10;99.90;;;;;;4974408;28;20429;-72
2023/10/16 02:53:23;;;;;;;6.10;5.60;;;9.10;99.90;;;;;;4956991;28;20425;-72
2023/10/16 02:55:53;;;;;;;7.40;5.90;;;9.00;99.90;;;;;;4975304;28;20929;-72
2023/10/16 02:58:23;;;;;;;5.83;5.33;;;9.00;99.90;;;;;;4975523;28;20482;-72
2023/10/16 03:00:55;;;;;;;6.73;5.53;;;9.00;99.90;;;;;;4974079;28;20429;-72
2023/10/16 03:03:24;;;;;;;6.83;6.03;;;9.00;99.90;;;;;;4957277;28;20846;-72
2023/10/16 03:05:50;;;;;;;6.90;6.30;;;9.10;99.90;;;;;;4957091;28;20423;-72
2023/10/16 03:08:22;;;;;;;6.30;5.67;;;9.20;99.90;;;;;;4971406;28;20441;-72
2023/10/16 03:10:49;;;;;;;6.30;5.80;;;9.00;99.90;;;;;;4971174;28;20425;-73
2023/10/16 03:13:15;;;;;;;7.90;7.13;;;9.00;99.90;;;;;;4974667;28;20480;-72
2023/10/16 03:15:48;;;;;;;7.47;5.63;;;8.90;99.90;;;;;;4974317;28;20900;-72
2023/10/16 03:18:17;;;;;;;8.40;5.53;;;8.90;99.90;;;;;;4957481;28;20457;-72
2023/10/16 03:20:46;;;;;;;7.00;5.80;;;8.90;99.90;;;;;;4973499;28;20443;-72
2023/10/16 03:23:18;;;;;;;6.70;6.00;;;8.90;99.90;;;;;;4975500;28;20412;-73
2023/10/16 03:28:14;;;;;;;6.17;5.57;;;8.90;99.90;;;;;;4974023;28;20470;-72
2023/10/16 03:30:42;;;;;;;6.10;5.50;;;8.90;99.90;;;;;;4957067;28;20902;-74
2023/10/16 03:33:08;;;;;;;6.23;5.63;;;8.80;99.90;;;;;;4973977;28;20911;-74
2023/10/16 03:35:36;;;;;;;6.20;5.60;;;8.80;99.90;;;;;;4974115;28;20511;-66
2023/10/16 03:38:10;;;;;;;5.97;5.37;;;8.80;99.90;;;;;;4974259;28;20461;-74
2023/10/16 03:40:36;;;;;;;6.70;5.37;;;8.80;99.90;;;;;;4974513;28;20757;-65
2023/10/16 03:43:02;;;;;;;6.50;5.90;;;8.80;99.90;;;;;;4974307;28;20427;-73
2023/10/16 03:45:28;;;;;;;8.57;7.87;;;8.70;99.90;;;;;;4973426;28;20640;-73
2023/10/16 03:47:57;;;;;;;7.10;6.50;;;8.70;99.90;;;;;;4958837;28;20291;-75
2023/10/16 03:50:34;;;;;;;6.90;6.40;;;8.80;99.90;;;;;;4974769;28;20425;-74
2023/10/16 03:53:03;;;;;;;6.80;6.10;;;8.70;99.90;;;;;;4973506;28;20436;-74
2023/10/16 03:55:32;;;;;;;7.93;7.23;;;8.70;99.90;;;;;;4973664;28;20440;-70
2023/10/16 03:57:57;;;;;;;6.97;6.27;;;8.70;99.90;;;;;;4972111;28;20474;-71
2023/10/16 04:00:33;;;;;;;8.53;7.30;;;8.70;99.90;;;;;;4973069;28;20718;-72
2023/10/16 04:02:59;;;;;;;6.10;5.00;;;8.70;99.90;;;;;;4972854;28;20184;-78
2023/10/16 04:05:39;;;;;;;65.57;40.23;;;8.70;99.90;;;;;;4939639;28;20431;-76
2023/10/16 04:08:05;;;;;;;24.73;17.10;;;8.60;99.90;;;;;;4973138;28;20439;-77
2023/10/16 04:10:31;;;;;;;7.17;6.60;;;8.60;99.90;;;;;;4973197;28;20934;-76
2023/10/16 04:12:57;;;;;;;7.50;6.80;;;8.60;99.90;;;;;;4969318;28;20432;-76
2023/10/16 04:16:11;;;;;;;6.83;6.13;;;8.60;99.90;;;;;;4972807;28;20243;-76
2023/10/16 04:31:44;;;;;;;7.90;6.53;;;8.50;99.90;;;;;;4973951;28;20526;-63
2023/10/16 04:48:06;;;;;;;7.50;6.70;;;8.40;99.90;;;;;;4971810;28;20842;-68
2023/10/16 06:14:10;;;;;;;8.53;7.63;;;8.40;99.90;;;;;;4971980;28;20431;-67
2023/10/16 06:16:53;;;;;;;8.57;7.27;;;8.40;99.90;;;;;;4971535;28;20554;-67
2023/10/16 06:19:19;;;;;;;9.40;7.27;;;8.40;99.90;;;;;;4955133;28;20526;-68
2023/10/16 06:21:56;;;;;;;9.20;7.90;;;8.50;99.90;;;;;;4971673;28;20476;-63
2023/10/16 06:26:53;;;;;;;9.50;8.60;;;8.50;99.90;;;;;;4973650;28;20506;-65
2023/10/16 06:29:19;;;;;;;9.37;7.80;;;8.60;99.90;;;;;;4975203;28;20428;-64
2023/10/16 06:31:53;;;;;;;10.60;9.60;;;8.50;99.90;;;;;;4967794;28;20432;-65
2023/10/16 06:34:23;;;;;;;11.47;8.53;;;8.50;99.90;;;;;;4975498;28;20430;-66
2023/10/16 06:36:51;;;;;;;10.20;8.60;;;8.60;99.90;;;;;;4974712;28;20866;-64
2023/10/16 06:39:35;;;;;;;9.47;8.47;;;8.60;99.90;;;;;;4975121;28;20431;-64
2023/10/16 06:42:02;;;;;;;10.57;8.97;;;8.70;99.90;;;;;;4967586;28;20429;-64
2023/10/16 06:44:28;;;;;;;11.57;9.10;;;8.70;99.90;;;;;;4975802;28;20428;-72
2023/10/16 06:46:58;;;;;;;9.63;7.43;;;8.70;99.90;;;;;;4973148;28;20441;-67
2023/10/16 06:49:35;;;;;;;8.27;7.37;;;8.80;99.90;;;;;;4974541;28;20445;-68
2023/10/16 06:52:12;;;;;;;8.90;7.20;;;8.80;99.90;;;;;;4975075;28;20424;-68
2023/10/16 06:54:39;;;;;;;11.40;9.40;;;8.80;99.90;;;;;;4972792;28;20490;-68
2023/10/16 06:57:11;;;;;;;9.20;8.13;;;8.80;99.90;;;;;;4969300;28;20714;-68
2023/10/16 06:59:45;;;;;;;13.30;9.27;;;8.90;99.90;;;;;;4957349;28;20436;-68
2023/10/16 07:02:21;;;;;;;10.33;8.90;;;8.90;99.90;;;;;;4956560;28;21119;-68
2023/10/16 07:04:47;;;;;;;12.07;8.70;;;8.90;99.90;;;;;;4974009;28;20437;-65
2023/10/16 07:07:16;;;;;;;12.67;9.80;;;8.80;99.90;;;;;;4967964;28;20452;-68
2023/10/16 07:09:48;;;;;;;12.50;8.27;;;8.90;99.90;;;;;;4969731;28;20512;-67
2023/10/16 07:12:18;;;;;;;10.37;8.17;;;8.90;99.90;;;;;;4971259;28;20432;-67
2023/10/16 07:14:55;;;;;;;13.23;8.53;;;9.00;99.90;;;;;;4973705;28;20450;-67
2023/10/16 07:17:24;;;;;;;10.17;8.03;;;9.00;99.90;;;;;;4974648;28;20493;-67
2023/10/16 07:20:00;;;;;;;10.23;7.87;;;9.10;99.90;;;;;;4974034;28;20832;-64
2023/10/16 07:22:32;;;;;;;10.93;7.87;;;9.20;99.90;;;;;;4970681;28;20450;-66
2023/10/16 07:27:46;;;;;;;10.73;9.43;;;9.20;99.90;;;;;;4973740;28;20490;-64
2023/10/16 07:30:21;;;;;;;11.73;9.57;;;9.30;99.90;;;;;;4956214;28;20433;-67
2023/10/16 07:32:48;;;;;;;12.17;9.07;;;9.30;99.90;;;;;;4974584;28;20167;-66
2023/10/16 07:35:17;;;;;;;12.60;8.20;;;9.40;99.90;;;;;;4972597;28;20438;-66
2023/10/16 07:37:49;;;;;;;11.23;9.37;;;9.40;99.90;;;;;;4973447;28;20459;-66
2023/10/16 07:40:21;;;;;;;12.90;10.47;;;9.50;99.90;;;;;;4974169;28;20475;-66
2023/10/16 07:42:52;;;;;;;11.70;10.07;;;9.60;99.90;;;;;;4974105;28;20459;-66
2023/10/16 07:45:21;;;;;;;9.83;8.83;;;9.60;99.90;;;;;;4956527;28;20437;-66
2023/10/16 07:47:51;;;;;;;12.77;11.37;;;9.80;99.90;;;;;;4973986;28;20442;-66
2023/10/16 07:50:17;;;;;;;11.30;8.57;;;9.80;99.90;;;;;;4974158;28;20799;-66
2023/10/16 07:52:43;;;;;;;10.67;8.53;;;9.90;99.90;;;;;;4973816;28;20455;-67
2023/10/16 07:55:18;;;;;;;10.60;7.63;;;9.90;99.90;;;;;;4973293;28;21114;-67
2023/10/16 07:57:48;;;;;;;10.40;8.40;;;10.00;99.90;;;;;;4973629;28;20471;-66
2023/10/16 08:00:14;;;;;;;11.07;9.00;;;10.10;99.90;;;;;;4956609;28;20430;-67
2023/10/16 08:02:46;;;;;;;10.03;8.73;;;10.10;99.90;;;;;;4973969;28;20485;-67
2023/10/16 08:05:15;;;;;;;8.83;7.70;;;10.10;99.90;;;;;;4972921;28;20586;-66
2023/10/16 08:07:47;;;;;;;11.27;9.10;;;10.00;99.90;;;;;;4974167;28;20977;-66
2023/10/16 08:13:11;;;;;;;10.10;8.47;;;10.00;99.90;;;;;;4973034;28;20431;-66
2023/10/16 08:15:51;;;;;;;9.87;8.60;;;10.10;99.90;;;;;;4956244;28;20780;-66
2023/10/16 08:18:18;;;;;;;13.83;9.63;;;10.10;99.90;;;;;;4973749;28;20509;-67
2023/10/16 08:20:59;;;;;;;11.33;7.90;;;10.20;99.90;;;;;;4973644;28;20443;-67
2023/10/16 08:23:31;;;;;;;11.60;9.37;;;10.10;99.90;;;;;;4973679;28;20427;-66
2023/10/16 08:26:00;;;;;;;15.80;9.57;;;10.40;99.90;;;;;;4973484;28;20426;-66
2023/10/16 08:28:35;;;;;;;14.60;9.83;;;10.30;99.90;;;;;;4973056;28;20909;-66
2023/10/16 08:33:54;;;;;;;11.80;9.60;;;10.30;99.90;;;;;;4971778;28;20423;-67
2023/10/16 08:36:20;;;;;;;11.47;9.20;;;10.50;99.90;;;;;;4965389;28;20780;-67
2023/10/16 08:38:53;;;;;;;11.17;10.07;;;10.30;99.90;;;;;;4955882;28;20424;-67
2023/10/16 08:41:42;;;;;;;13.93;10.17;;;10.30;99.90;;;;;;4964169;28;20428;-67
2023/10/16 08:44:15;;;;;;;12.80;9.87;;;10.40;99.90;;;;;;4965365;28;20427;-66
2023/10/16 08:47:11;;;;;;;12.97;9.90;;;10.40;99.90;;;;;;4966742;28;20412;-67
2023/10/16 08:49:38;;;;;;;12.33;9.00;;;10.40;99.90;;;;;;4971648;28;21068;-67
2023/10/16 08:52:11;;;;;;;9.70;8.40;;;10.50;99.90;;;;;;4972789;28;20433;-68
2023/10/16 08:57:19;;;;;;;12.77;8.90;;;10.70;99.90;;;;;;4972202;28;20815;-67
2023/10/16 08:59:49;;;;;;;10.73;8.60;;;10.80;99.90;;;;;;4973931;28;20437;-67
2023/10/16 09:02:17;;;;;;;14.93;8.13;;;10.90;99.90;;;;;;4972208;28;20437;-67
2023/10/16 09:04:45;;;;;;;11.80;9.43;;;11.00;99.90;;;;;;4972570;28;20426;-67
2023/10/16 09:07:17;;;;;;;10.83;8.43;;;11.00;99.90;;;;;;4972605;28;20429;-68
2023/10/16 09:09:48;;;;;;;11.57;9.40;;;11.10;99.90;;;;;;4972818;28;20463;-66
2023/10/16 09:12:26;;;;;;;11.37;9.33;;;11.20;99.90;;;;;;4954745;28;20851;-59
2023/10/16 09:14:53;;;;;;;14.10;9.50;;;11.20;99.90;;;;;;4971136;28;20442;-60
2023/10/16 09:17:23;;;;;;;12.63;11.00;;;11.40;99.90;;;;;;4972699;28;20459;-59
2023/10/16 09:19:50;;;;;;;10.60;8.60;;;11.50;99.90;;;;;;4972402;28;20423;-59
2023/10/16 09:22:18;;;;;;;10.83;9.83;;;11.50;99.90;;;;;;4972369;28;20803;-59
2023/10/16 09:24:51;;;;;;;11.50;8.63;;;11.50;99.90;;;;;;4972959;28;20419;-60
2023/10/16 09:27:18;;;;;;;9.67;8.67;;;11.50;99.90;;;;;;4972570;28;20538;-59
2023/10/16 09:29:53;;;;;;;12.80;9.30;;;11.60;99.90;;;;;;4972947;28;20432;-59
2023/10/16 09:32:27;;;;;;;11.07;9.43;;;11.60;99.90;;;;;;4956916;28;20436;-59
2023/10/16 09:34:53;;;;;;;13.67;8.37;;;11.70;99.90;;;;;;4973726;28;20463;-59
2023/10/16 09:37:34;;;;;;;12.70;8.70;;;11.80;99.90;;;;;;4972294;28;20456;-59
2023/10/16 09:40:35;;;;;;;10.50;8.60;;;11.90;99.90;;;;;;4972480;28;20444;-59
2023/10/16 09:43:05;;;;;;;10.87;9.53;;;12.00;99.90;;;;;;4972369;28;20420;-60
2023/10/16 09:45:35;;;;;;;10.40;9.00;;;12.10;99.90;;;;;;4956489;28;20413;-60
2023/10/16 09:48:09;;;;;;;11.27;8.00;;;12.20;99.90;;;;;;4972302;28;20457;-60
2023/10/16 09:50:38;;;;;;;11.83;10.63;;;12.20;99.90;;;;;;4972878;28;20431;-61
2023/10/16 09:53:08;;;;;;;15.30;10.80;;;12.30;99.90;;;;;;4972260;28;20483;-60
2023/10/16 09:55:48;;;;;;;9.67;7.80;;;12.50;99.90;;;;;;4973497;28;20444;-60
2023/10/16 09:58:18;;;;;;;11.87;10.00;;;12.60;99.90;;;;;;4973225;28;20470;-60
2023/10/16 10:00:46;;;;;;;9.93;8.07;;;12.80;99.90;;;;;;4976769;28;20797;-60
2023/10/16 10:03:14;;;;;;;10.13;9.13;;;13.00;99.90;;;;;;4975652;28;20459;-60
2023/10/16 10:05:55;;;;;;;9.33;8.40;;;13.20;99.90;;;;;;4976477;28;20431;-59
2023/10/16 10:11:44;;;;;;;8.90;7.50;;;13.70;99.90;;;;;;4975034;28;20475;-59
2023/10/16 10:17:00;;;;;;;9.13;7.23;;;14.40;99.90;;;;;;4976951;28;20452;-59
2023/10/16 10:19:39;;;;;;;7.63;6.70;;;14.80;99.90;;;;;;4959367;28;21061;-59
2023/10/16 10:22:17;;;;;;;7.00;6.30;;;15.20;99.90;;;;;;4958322;28;20952;-59
2023/10/16 10:24:51;;;;;;;7.80;6.80;;;15.60;99.90;;;;;;4975836;28;20459;-59
2023/10/16 10:27:17;;;;;;;7.47;6.63;;;15.90;99.90;;;;;;4974882;28;20483;-60
2023/10/16 10:29:49;;;;;;;6.77;6.10;;;16.20;99.00;;;;;;4976599;28;20439;-59
2023/10/16 10:32:15;;;;;;;6.17;5.67;;;16.50;97.50;;;;;;4974517;28;21006;-60
2023/10/16 10:34:43;;;;;;;6.73;6.10;;;16.70;97.30;;;;;;4976004;28;20463;-59
2023/10/16 10:37:47;;;;;;;5.23;4.70;;;17.00;96.20;;;;;;4975847;28;20459;-59
2023/10/16 10:40:22;;;;;;;5.60;4.77;;;17.20;95.20;;;;;;4956735;29;20481;-60
2023/10/16 10:42:54;;;;;;;7.70;7.00;;;17.40;95.50;;;;;;4968100;28;20501;-59
2023/10/16 10:45:34;;;;;;;6.43;5.93;;;17.60;93.70;;;;;;4975347;28;20427;-60
2023/10/16 10:48:09;;;;;;;5.83;5.33;;;17.70;93.80;;;;;;4958250;28;20431;-59
2023/10/16 10:50:40;;;;;;;5.70;5.20;;;17.80;92.70;;;;;;4975687;28;20484;-59
2023/10/16 10:53:15;;;;;;;5.87;5.20;;;17.90;92.50;;;;;;4975076;28;20423;-60
2023/10/16 10:55:59;;;;;;;5.00;4.50;;;18.00;92.30;;;;;;4958058;28;20908;-60
2023/10/16 10:58:31;;;;;;;5.60;5.10;;;18.10;92.20;;;;;;4976291;28;20447;-60
2023/10/16 11:01:16;;;;;;;5.90;5.10;;;18.20;90.60;;;;;;4958227;28;20423;-59
2023/10/16 11:03:45;;;;;;;6.23;4.30;;;18.20;90.90;;;;;;4975401;28;20435;-59
2023/10/16 11:06:18;;;;;;;5.20;4.80;;;18.30;90.60;;;;;;4974764;28;20431;-59
2023/10/16 11:08:53;;;;;;;5.40;4.37;;;18.30;91.40;;;;;;4974661;28;20432;-58
2023/10/16 11:11:19;;;;;;;5.00;4.60;;;18.40;90.20;;;;;;4973901;28;20422;-58
2023/10/16 11:13:48;;;;;;;5.33;4.43;;;18.40;91.00;;;;;;4975749;28;20411;-58
2023/10/16 11:16:18;;;;;;;4.43;4.03;;;18.40;90.80;;;;;;4974977;28;20184;-58
2023/10/16 11:19:01;;;;;;;5.00;3.77;;;18.30;90.80;;;;;;4975165;28;20795;-58
2023/10/16 11:21:28;;;;;;;5.73;5.33;;;18.20;92.10;;;;;;4975918;28;20400;-58
2023/10/16 11:23:55;;;;;;;6.50;5.90;;;18.20;91.70;;;;;;4975096;28;20478;-58
2023/10/16 11:26:26;;;;;;;8.20;7.23;;;18.00;90.70;;;;;;4974228;28;20443;-58
2023/10/16 11:28:54;;;;;;;6.10;5.50;;;17.90;91.30;;;;;;4975117;28;20882;-59
2023/10/16 11:31:21;;;;;;;6.33;5.73;;;17.70;92.60;;;;;;4975040;28;20741;-58
2023/10/16 11:34:00;;;;;;;6.37;5.77;;;17.40;92.30;;;;;;4974997;28;20420;-58
2023/10/16 11:36:28;;;;;;;5.97;5.47;;;17.20;92.00;;;;;;4975038;28;20415;-58
2023/10/16 11:38:58;;;;;;;5.77;5.03;;;17.10;92.50;;;;;;4974878;28;20753;-58
2023/10/16 11:41:26;;;;;;;6.00;4.60;;;16.90;92.60;;;;;;4973439;28;20877;-59
2023/10/16 11:43:53;;;;;;;5.30;4.90;;;17.00;92.80;;;;;;4957546;28;20503;-59
2023/10/16 11:46:28;;;;;;;4.90;4.50;;;16.90;92.50;;;;;;4974406;28;20427;-60
2023/10/16 11:51:51;;;;;;;5.23;4.80;;;17.00;94.10;;;;;;4956963;28;20428;-59
2023/10/16 11:54:22;;;;;;;4.07;3.67;;;17.20;93.30;;;;;;4958724;28;20473;-59
2023/10/16 11:56:53;;;;;;;5.33;4.97;;;17.30;92.40;;;;;;4974358;28;20454;-59
2023/10/16 11:59:21;;;;;;;3.90;3.50;;;17.30;92.40;;;;;;4974295;28;20443;-59
2023/10/16 12:01:51;;;;;;;5.33;5.00;;;17.30;91.10;;;;;;4974850;28;20895;-58
2023/10/16 12:04:19;;;;;;;7.70;3.40;;;17.30;91.50;;;;;;4973893;28;20431;-58
2023/10/16 12:06:46;;;;;;;5.03;4.60;;;17.30;91.10;;;;;;4975201;28;20423;-59
2023/10/16 12:09:21;;;;;;;6.10;5.70;;;17.20;91.00;;;;;;4972660;28;20434;-59
2023/10/16 12:11:49;;;;;;;3.60;3.30;;;17.10;91.30;;;;;;4974118;28;20423;-59
2023/10/16 12:14:19;;;;;;;5.07;4.67;;;17.10;91.90;;;;;;4956650;28;20412;-59
2023/10/16 12:16:47;;;;;;;5.43;5.03;;;17.10;92.00;;;;;;4974118;28;20813;-59
2023/10/16 12:19:17;;;;;;;5.50;4.70;;;17.00;91.80;;;;;;4972732;28;20423;-59
2023/10/16 12:21:44;;;;;;;4.00;3.27;;;17.00;92.60;;;;;;4957182;28;20400;-60
2023/10/16 12:24:12;;;;;;;6.10;5.60;;;16.90;91.30;;;;;;4939924;28;20455;-59
2023/10/16 12:26:42;;;;;;;3.17;2.87;;;16.90;92.60;;;;;;4956141;28;20503;-59
2023/10/16 12:29:08;;;;;;;3.90;3.60;;;16.80;92.30;;;;;;4973055;28;20420;-60
2023/10/16 12:31:40;;;;;;;5.03;4.73;;;16.70;92.00;;;;;;4956919;28;20785;-61
2023/10/16 12:34:11;;;;;;;412.37;277.50;;;16.70;92.80;;;;;;4972790;28;20436;-59
2023/10/16 12:36:38;;;;;;;43.73;32.97;;;16.70;93.60;;;;;;4955470;28;20434;-58
2023/10/16 12:39:13;;;;;;;17.27;12.87;;;16.70;93.60;;;;;;4971376;28;20416;-59
2023/10/16 12:41:43;;;;;;;4.93;4.10;;;16.60;93.90;;;;;;4974256;28;20466;-60
2023/10/16 12:44:10;;;;;;;3.10;2.90;;;16.60;94.00;;;;;;4972806;28;20428;-59
2023/10/16 12:46:43;;;;;;;4.57;4.37;;;16.60;95.20;;;;;;4972958;28;20786;-61
2023/10/16 12:49:09;;;;;;;4.00;3.70;;;16.60;94.10;;;;;;4973750;28;20466;-59
2023/10/16 12:51:35;;;;;;;4.40;4.10;;;16.60;93.60;;;;;;4973393;28;20423;-60
2023/10/16 12:54:03;;;;;;;4.33;3.93;;;16.60;93.90;;;;;;4973055;28;20432;-60
2023/10/16 12:56:41;;;;;;;4.10;3.70;;;16.50;93.30;;;;;;4972546;28;20899;-59
2023/10/16 12:59:13;;;;;;;4.03;3.73;;;16.40;93.10;;;;;;4939768;28;20930;-63
2023/10/16 13:01:39;;;;;;;6.73;6.23;;;16.40;93.30;;;;;;4921578;28;20421;-65
2023/10/16 13:04:16;;;;;;;1579.00;858.20;;;16.30;94.50;;;;;;4955944;28;20917;-68
2023/10/16 13:06:43;;;;;;;91.80;69.73;;;16.20;93.90;;;;;;4939453;28;20427;-59
2023/10/16 13:09:17;;;;;;;8.97;8.13;;;16.10;94.20;;;;;;4969342;28;20510;-61
2023/10/16 13:11:45;;;;;;;3.53;3.20;;;16.10;94.60;;;;;;4973390;28;20923;-59
2023/10/16 13:14:13;;;;;;;4.53;4.13;;;16.00;94.20;;;;;;4972204;28;20423;-59
2023/10/16 13:16:53;;;;;;;4.20;3.80;;;15.90;94.50;;;;;;4973064;28;20430;-60
2023/10/16 13:19:20;;;;;;;3.80;2.80;;;15.80;94.90;;;;;;4972670;28;20431;-64
2023/10/16 13:21:51;;;;;;;4.00;3.70;;;15.80;95.80;;;;;;4972529;28;20430;-60
2023/10/16 13:24:19;;;;;;;4.63;4.33;;;15.70;96.00;;;;;;4971430;28;20525;-59
2023/10/16 13:26:47;;;;;;;4.40;4.10;;;15.60;97.10;;;;;;4951224;28;20481;-59
2023/10/16 13:29:17;;;;;;;4.20;3.77;;;15.60;96.70;;;;;;4951091;29;20440;-58
2023/10/16 13:31:46;;;;;;;4.00;3.43;;;15.50;97.20;;;;;;4947702;28;20914;-59
2023/10/16 13:34:15;;;;;;;5.60;5.20;;;15.50;97.00;;;;;;4951450;29;20428;-58
2023/10/16 13:36:43;;;;;;;478.37;312.03;;;15.40;97.40;;;;;;4957632;28;20428;-59
2023/10/16 13:39:09;;;;;;;338.70;230.80;;;15.40;98.00;;;;;;4939872;29;20433;-68
2023/10/16 13:41:50;;;;;;;7.50;6.73;;;15.40;97.70;;;;;;4950488;29;20439;-60
2023/10/16 13:44:19;;;;;;;5.97;5.57;;;15.40;98.20;;;;;;4956554;28;20424;-59
2023/10/16 13:46:46;;;;;;;4.20;3.80;;;15.40;98.50;;;;;;4957232;28;20562;-59
2023/10/16 13:49:14;;;;;;;6.83;6.33;;;15.40;98.00;;;;;;4956872;28;20923;-60
2023/10/16 13:51:41;;;;;;;4.97;4.57;;;15.30;98.90;;;;;;4957486;28;20434;-58
2023/10/16 13:54:11;;;;;;;4.90;4.13;;;15.30;98.90;;;;;;4957465;28;20429;-59
2023/10/16 13:56:42;;;;;;;4.97;3.27;;;15.30;99.00;;;;;;4957935;28;20459;-60
2023/10/16 13:59:08;;;;;;;4.33;4.03;;;15.20;99.10;;;;;;4955498;29;20428;-63
2023/10/16 14:01:42;;;;;;;5.07;4.60;;;15.20;99.90;;;;;;4950629;29;20424;-64
2023/10/16 14:04:15;;;;;;;3.80;3.50;;;15.20;99.20;;;;;;4957257;28;20443;-66
2023/10/16 14:06:48;;;;;;;3.80;3.50;;;15.10;99.90;;;;;;4957187;29;20434;-63
2023/10/16 14:09:20;;;;;;;4.10;3.80;;;15.10;99.80;;;;;;4954772;29;20795;-61
2023/10/16 14:11:47;;;;;;;3.60;3.30;;;15.10;99.30;;;;;;4957095;28;20432;-67
2023/10/16 14:14:20;;;;;;;3.60;3.30;;;15.20;98.90;;;;;;4956499;28;20423;-67
2023/10/16 14:17:16;;;;;;;3.80;3.50;;;15.20;99.10;;;;;;4955193;29;21061;-70
2023/10/16 14:19:47;;;;;;;5.03;4.73;;;15.30;99.50;;;;;;4954648;29;20848;-68
2023/10/16 14:22:16;;;;;;;4.40;3.20;;;15.30;98.50;;;;;;4955823;28;20450;-67
2023/10/16 14:24:45;;;;;;;3.60;3.30;;;15.30;97.30;;;;;;4956768;29;20792;-68
2023/10/16 14:27:13;;;;;;;4.43;4.00;;;15.30;97.10;;;;;;4963823;28;20550;-66
2023/10/16 14:29:44;;;;;;;3.43;3.23;;;15.30;96.90;;;;;;4976068;28;20434;-68
2023/10/16 14:32:11;;;;;;;5.80;4.67;;;15.30;96.70;;;;;;4959005;28;20434;-68
2023/10/16 14:34:37;;;;;;;3.83;3.63;;;15.30;97.70;;;;;;4975920;28;20433;-67
2023/10/16 14:37:05;;;;;;;6.00;3.90;;;15.30;98.50;;;;;;4975881;28;20466;-68
2023/10/16 14:39:31;;;;;;;5.13;3.57;;;15.20;97.30;;;;;;4957587;28;20438;-67
2023/10/16 14:42:01;;;;;;;3.77;3.37;;;15.20;96.60;;;;;;4975161;28;20507;-66
2023/10/16 14:44:27;;;;;;;3.80;3.50;;;15.20;97.00;;;;;;4956497;28;20449;-68
2023/10/16 14:46:56;;;;;;;3.90;3.60;;;15.20;98.80;;;;;;4975741;28;20839;-67
2023/10/16 14:49:25;;;;;;;4.47;4.07;;;15.20;98.60;;;;;;4956770;28;21008;-67
2023/10/16 14:51:53;;;;;;;4.10;3.80;;;15.20;98.00;;;;;;4958458;28;20838;-68
2023/10/16 14:54:21;;;;;;;5.60;5.10;;;15.20;98.50;;;;;;4958157;28;20440;-67
2023/10/16 14:56:49;;;;;;;51.03;30.57;;;15.20;98.90;;;;;;4957977;28;20438;-67
2023/10/16 14:59:27;;;;;;;58.33;36.27;;;15.20;98.70;;;;;;4971703;28;20516;-67
2023/10/16 15:01:54;;;;;;;24.53;18.57;;;15.20;97.20;;;;;;4976270;28;20413;-67
2023/10/16 15:04:20;;;;;;;6.33;5.70;;;15.20;97.00;;;;;;4974321;28;20460;-72
2023/10/16 15:06:46;;;;;;;4.63;4.27;;;15.20;97.20;;;;;;4975350;28;20419;-72
2023/10/16 15:09:16;;;;;;;5.00;3.77;;;15.30;98.80;;;;;;4975298;28;20465;-70
2023/10/16 15:11:49;;;;;;;5.17;4.70;;;15.30;99.60;;;;;;4975369;28;20494;-74
2023/10/16 15:14:16;;;;;;;4.13;3.80;;;15.30;99.90;;;;;;4974975;28;20418;-73
2023/10/16 15:16:43;;;;;;;4.60;4.23;;;15.30;99.90;;;;;;4974465;28;20486;-75
2023/10/16 15:19:10;;;;;;;4.33;3.93;;;15.20;99.90;;;;;;4974743;28;20426;-68
2023/10/16 15:21:40;;;;;;;4.30;4.00;;;15.20;99.30;;;;;;4973016;28;20430;-73
2023/10/16 15:24:08;;;;;;;4.70;3.90;;;15.20;99.00;;;;;;4969416;28;20477;-68